LIRN Airport Information

Runway Information
Runway 06 Length 8622 ft width 148 ft
Elevation 284 ft Threshold 1309 ft Heading 58
Runway 24 Length 8622 ft Width 148 ft
Elevation 223 ft Threshold 624 ft Heading 238
Airport Frequencies
Type APP Name NAPOLI RAD Frequency 124.35 MHZ
Type ATIS Name ATIS Frequency 135.975 MHZ
Type DIR Name NAPOLI DIR Frequency 120.95 MHZ
Type GCCD Name NAPOLI GND Frequency 121.9 MHZ
Type OPS Name USN BASE O Frequency 118.275 MHZ
Type PMSV Name PMSV METRO Frequency 34.1 MHZ
Type POST Name ATOC Frequency 118.275 MHZ
Type TWR Name NAPOLI TWR Frequency 118.5 MHZ
Airport Navaids
Type VOR-DME Name Pomigliano Frequency 117850 KHZ
Type NDB Name Pomigliano Frequency 351 KHZ
Airport Weather Information & NOTAM
ADDS - METARS form results

(1927 UTC 14 November 2018)
Data provider http://aviationweather.gov/metar/data/
 
METAR text: LIRN 141920Z 04003KT CAVOK 14/12 Q1024 NOSIG
Conditions at: LIRN (NAPLES/CAPODICHI, IT) observed 1920 UTC 14 November 2018
Temperature: 14.0°C (57°F)
Dewpoint: 12.0°C (54°F) [RH = 88%]
Pressure (altimeter): 30.24 inches Hg (1024.0 mb)
Winds: from the NE (40 degrees) at 3 MPH (3 knots; 1.5 m/s)
Visibility: 6 or more miles (10+ km)
Ceiling: ceiling and visibility are OK
Clouds: unknown
Weather: no significant weather observed at this time

METAR text: LIRN 141850Z 07003KT CAVOK 15/12 Q1024 NOSIG
Conditions at: LIRN (NAPLES/CAPODICHI, IT) observed 1850 UTC 14 November 2018
Temperature: 15.0°C (59°F)
Dewpoint: 12.0°C (54°F) [RH = 82%]
Pressure (altimeter): 30.24 inches Hg (1024.0 mb)
Winds: from the ENE (70 degrees) at 3 MPH (3 knots; 1.5 m/s)
Visibility: 6 or more miles (10+ km)
Ceiling: ceiling and visibility are OK
Clouds: unknown
Weather: no significant weather observed at this time

Forecast for: LIRN (NAPLES/CAPODICHI, IT)
Text: TAF LIRN 141700Z 1418/1518 VRB05KT CAVOK
Forecast period: 1800 UTC 14 November 2018 to 1800 UTC 15 November 2018
Forecast type: FROM: standard forecast or significant change
Winds: variable direction winds at 6 MPH (5 knots; 2.6 m/s)
Visibility: 6 or more miles 10+ km)
Ceiling: unknown
Clouds: missing
Weather: NSW  (no significant weather)
Text: TEMPO 1502/1506 4000 BR
Forecast period: 0200 to 0600 UTC 15 November 2018
Forecast type: TEMPORARY: The following changes expected for less than half the time period
Visibility: 2.49 miles (4.01 km)
Ceiling: unknown
Clouds: missing
Weather: BR  (mist)